sensor_id;sensor_type;location;lat;lon;timestamp;pressure;altitude;pressure_sealevel;temperature;humidity
80938;BME280;70395;51.382;7.074;2023-08-06T00:00:26;99317.66;;;17.89;65.65
80938;BME280;70395;51.382;7.074;2023-08-06T00:02:52;99311.41;;;17.88;65.70
80938;BME280;70395;51.382;7.074;2023-08-06T00:05:18;99313.88;;;17.90;65.63
80938;BME280;70395;51.382;7.074;2023-08-06T00:07:52;99319.31;;;17.90;65.64
80938;BME280;70395;51.382;7.074;2023-08-06T00:10:18;99318.03;;;17.93;65.52
80938;BME280;70395;51.382;7.074;2023-08-06T00:12:44;99315.09;;;17.94;65.89
80938;BME280;70395;51.382;7.074;2023-08-06T00:15:11;99315.31;;;17.93;65.78
80938;BME280;70395;51.382;7.074;2023-08-06T00:17:37;99320.75;;;17.93;65.69
80938;BME280;70395;51.382;7.074;2023-08-06T00:20:04;99305.53;;;17.92;65.44
80938;BME280;70395;51.382;7.074;2023-08-06T00:22:36;99308.25;;;17.92;66.18
80938;BME280;70395;51.382;7.074;2023-08-06T00:25:04;99294.47;;;17.93;65.90
80938;BME280;70395;51.382;7.074;2023-08-06T00:27:30;99289.28;;;17.92;66.15
80938;BME280;70395;51.382;7.074;2023-08-06T00:29:58;99285.50;;;17.93;65.78
80938;BME280;70395;51.382;7.074;2023-08-06T00:32:23;99287.38;;;17.92;66.20
80938;BME280;70395;51.382;7.074;2023-08-06T00:34:49;99292.19;;;17.90;65.98
80938;BME280;70395;51.382;7.074;2023-08-06T00:37:16;99282.59;;;17.87;66.16
80938;BME280;70395;51.382;7.074;2023-08-06T00:39:43;99278.25;;;17.86;66.31
80938;BME280;70395;51.382;7.074;2023-08-06T00:42:10;99281.16;;;17.85;66.47
80938;BME280;70395;51.382;7.074;2023-08-06T00:44:37;99275.97;;;17.83;65.92
80938;BME280;70395;51.382;7.074;2023-08-06T00:47:06;99271.81;;;17.81;66.01
80938;BME280;70395;51.382;7.074;2023-08-06T00:49:37;99268.06;;;17.82;66.46
80938;BME280;70395;51.382;7.074;2023-08-06T00:52:05;99266.38;;;17.81;66.30
80938;BME280;70395;51.382;7.074;2023-08-06T00:54:33;99260.97;;;17.81;66.21
80938;BME280;70395;51.382;7.074;2023-08-06T00:57:01;99266.81;;;17.77;65.96
80938;BME280;70395;51.382;7.074;2023-08-06T00:59:29;99266.22;;;17.75;65.90
80938;BME280;70395;51.382;7.074;2023-08-06T01:01:56;99272.69;;;17.74;66.44
80938;BME280;70395;51.382;7.074;2023-08-06T01:04:23;99260.41;;;17.72;65.97
80938;BME280;70395;51.382;7.074;2023-08-06T01:07:03;99263.97;;;17.65;66.68
80938;BME280;70395;51.382;7.074;2023-08-06T01:15:28;99257.78;;;17.58;66.33
80938;BME280;70395;51.382;7.074;2023-08-06T01:17:55;99260.47;;;17.58;66.26
80938;BME280;70395;51.382;7.074;2023-08-06T01:20:21;99265.31;;;17.56;66.04
80938;BME280;70395;51.382;7.074;2023-08-06T01:22:47;99264.91;;;17.52;66.23
80938;BME280;70395;51.382;7.074;2023-08-06T01:25:16;99265.34;;;17.49;66.50
80938;BME280;70395;51.382;7.074;2023-08-06T01:27:49;99264.72;;;17.47;66.54
80938;BME280;70395;51.382;7.074;2023-08-06T01:30:31;99266.38;;;17.48;66.23
80938;BME280;70395;51.382;7.074;2023-08-06T01:33:04;99259.28;;;17.54;66.29
80938;BME280;70395;51.382;7.074;2023-08-06T01:35:35;99263.44;;;17.56;66.53
80938;BME280;70395;51.382;7.074;2023-08-06T01:38:02;99258.84;;;17.57;66.13
80938;BME280;70395;51.382;7.074;2023-08-06T01:40:29;99258.84;;;17.57;66.38
80938;BME280;70395;51.382;7.074;2023-08-06T01:42:55;99252.78;;;17.55;66.34
80938;BME280;70395;51.382;7.074;2023-08-06T01:45:21;99247.38;;;17.55;66.64
80938;BME280;70395;51.382;7.074;2023-08-06T01:47:47;99250.06;;;17.55;66.64
80938;BME280;70395;51.382;7.074;2023-08-06T01:50:12;99243.63;;;17.56;66.76
80938;BME280;70395;51.382;7.074;2023-08-06T01:52:38;99234.22;;;17.59;66.31
80938;BME280;70395;51.382;7.074;2023-08-06T01:55:04;99234.59;;;17.62;66.25
80938;BME280;70395;51.382;7.074;2023-08-06T01:57:30;99238.16;;;17.63;66.38
80938;BME280;70395;51.382;7.074;2023-08-06T01:59:56;99233.56;;;17.63;66.16
80938;BME280;70395;51.382;7.074;2023-08-06T02:02:22;99228.13;;;17.63;66.08
80938;BME280;70395;51.382;7.074;2023-08-06T02:04:48;99238.97;;;17.63;66.43
80938;BME280;70395;51.382;7.074;2023-08-06T02:07:13;99232.53;;;17.64;66.25
80938;BME280;70395;51.382;7.074;2023-08-06T02:09:39;99236.03;;;17.65;66.03
80938;BME280;70395;51.382;7.074;2023-08-06T02:12:06;99230.63;;;17.65;66.05
80938;BME280;70395;51.382;7.074;2023-08-06T02:14:32;99217.91;;;17.65;66.33
80938;BME280;70395;51.382;7.074;2023-08-06T02:16:58;99228.53;;;17.67;66.25
80938;BME280;70395;51.382;7.074;2023-08-06T02:19:23;99229.34;;;17.67;66.44
80938;BME280;70395;51.382;7.074;2023-08-06T02:21:49;99232.06;;;17.67;65.93
80938;BME280;70395;51.382;7.074;2023-08-06T02:24:15;99227.72;;;17.66;65.95
80938;BME280;70395;51.382;7.074;2023-08-06T02:26:41;99228.53;;;17.67;66.18
80938;BME280;70395;51.382;7.074;2023-08-06T02:29:06;99230.19;;;17.68;66.03
80938;BME280;70395;51.382;7.074;2023-08-06T02:31:32;99215.59;;;17.69;66.32
80938;BME280;70395;51.382;7.074;2023-08-06T02:33:58;99221.22;;;17.67;66.18
80938;BME280;70395;51.382;7.074;2023-08-06T02:36:24;99222.28;;;17.66;66.10
80938;BME280;70395;51.382;7.074;2023-08-06T02:38:50;99220.84;;;17.64;66.23
80938;BME280;70395;51.382;7.074;2023-08-06T02:41:16;99220.25;;;17.62;66.35
80938;BME280;70395;51.382;7.074;2023-08-06T02:43:41;99209.00;;;17.58;66.23
80938;BME280;70395;51.382;7.074;2023-08-06T02:46:07;99210.25;;;17.55;66.45
80938;BME280;70395;51.382;7.074;2023-08-06T02:48:33;99205.28;;;17.52;66.78
80938;BME280;70395;51.382;7.074;2023-08-06T02:50:59;99205.72;;;17.49;66.60
80938;BME280;70395;51.382;7.074;2023-08-06T02:53:25;99208.44;;;17.49;66.30
80938;BME280;70395;51.382;7.074;2023-08-06T02:55:51;99199.47;;;17.49;66.41
80938;BME280;70395;51.382;7.074;2023-08-06T02:58:17;99200.06;;;17.51;66.60
80938;BME280;70395;51.382;7.074;2023-08-06T03:01:03;99200.50;;;17.48;66.64
80938;BME280;70395;51.382;7.074;2023-08-06T03:03:33;99188.63;;;17.49;66.05
80938;BME280;70395;51.382;7.074;2023-08-06T03:06:00;99182.19;;;17.50;66.53
80938;BME280;70395;51.382;7.074;2023-08-06T03:08:26;99178.63;;;17.49;66.59
80938;BME280;70395;51.382;7.074;2023-08-06T03:10:52;99182.19;;;17.50;66.41
80938;BME280;70395;51.382;7.074;2023-08-06T03:13:19;99181.09;;;17.51;66.22
80938;BME280;70395;51.382;7.074;2023-08-06T03:15:58;99181.53;;;17.48;66.30
80938;BME280;70395;51.382;7.074;2023-08-06T03:18:25;99176.97;;;17.48;66.49
80938;BME280;70395;51.382;7.074;2023-08-06T03:20:54;99178.03;;;17.47;66.18
80938;BME280;70395;51.382;7.074;2023-08-06T03:23:20;99172.19;;;17.43;66.89
80938;BME280;70395;51.382;7.074;2023-08-06T03:25:46;99173.47;;;17.41;66.56
80938;BME280;70395;51.382;7.074;2023-08-06T03:28:12;99175.78;;;17.37;66.41
80938;BME280;70395;51.382;7.074;2023-08-06T03:30:38;99172.06;;;17.31;66.88
80938;BME280;70395;51.382;7.074;2023-08-06T03:33:04;99175.22;;;17.28;66.68
80938;BME280;70395;51.382;7.074;2023-08-06T03:35:30;99177.13;;;17.28;66.54
80938;BME280;70395;51.382;7.074;2023-08-06T03:37:56;99170.03;;;17.27;66.40
80938;BME280;70395;51.382;7.074;2023-08-06T03:40:21;99174.41;;;17.28;66.55
80938;BME280;70395;51.382;7.074;2023-08-06T03:42:47;99175.22;;;17.28;66.31
80938;BME280;70395;51.382;7.074;2023-08-06T03:45:13;99173.56;;;17.27;66.24
80938;BME280;70395;51.382;7.074;2023-08-06T03:47:39;99175.22;;;17.28;66.54
80938;BME280;70395;51.382;7.074;2023-08-06T03:50:05;99168.75;;;17.29;66.43
80938;BME280;70395;51.382;7.074;2023-08-06T03:52:31;99166.88;;;17.30;66.59
80938;BME280;70395;51.382;7.074;2023-08-06T03:54:57;99170.41;;;17.30;66.54
80938;BME280;70395;51.382;7.074;2023-08-06T03:57:22;99170.41;;;17.30;66.44
80938;BME280;70395;51.382;7.074;2023-08-06T03:59:48;99165.81;;;17.31;66.75
80938;BME280;70395;51.382;7.074;2023-08-06T04:02:14;99170.81;;;17.34;66.31
80938;BME280;70395;51.382;7.074;2023-08-06T04:04:40;99166.84;;;17.37;66.73
80938;BME280;70395;51.382;7.074;2023-08-06T04:07:05;99162.84;;;17.39;66.43
80938;BME280;70395;51.382;7.074;2023-08-06T04:09:31;99156.38;;;17.40;66.51
80938;BME280;70395;51.382;7.074;2023-08-06T04:11:57;99163.22;;;17.43;66.29
80938;BME280;70395;51.382;7.074;2023-08-06T04:14:26;99165.75;;;17.44;66.21
80938;BME280;70395;51.382;7.074;2023-08-06T04:16:51;99167.38;;;17.45;66.26
80938;BME280;70395;51.382;7.074;2023-08-06T04:19:17;99170.69;;;17.48;65.98
80938;BME280;70395;51.382;7.074;2023-08-06T04:21:43;99165.06;;;17.49;66.01
80938;BME280;70395;51.382;7.074;2023-08-06T04:24:09;99159.44;;;17.51;66.35
80938;BME280;70395;51.382;7.074;2023-08-06T04:26:34;99162.53;;;17.54;66.44
80938;BME280;70395;51.382;7.074;2023-08-06T04:29:00;99156.91;;;17.56;66.21
80938;BME280;70395;51.382;7.074;2023-08-06T04:31:26;99160.22;;;17.58;66.20
80938;BME280;70395;51.382;7.074;2023-08-06T04:33:52;99157.28;;;17.60;66.31
80938;BME280;70395;51.382;7.074;2023-08-06T04:36:18;99158.50;;;17.64;65.88
80938;BME280;70395;51.382;7.074;2023-08-06T04:38:43;99154.28;;;17.68;65.69
80938;BME280;70395;51.382;7.074;2023-08-06T04:41:11;99154.91;;;17.70;65.57
80938;BME280;70395;51.382;7.074;2023-08-06T04:43:37;99156.13;;;17.74;65.89
80938;BME280;70395;51.382;7.074;2023-08-06T04:46:02;99165.06;;;17.75;65.56
80938;BME280;70395;51.382;7.074;2023-08-06T04:48:28;99159.28;;;17.71;66.13
80938;BME280;70395;51.382;7.074;2023-08-06T04:50:54;99158.44;;;17.71;65.56
80938;BME280;70395;51.382;7.074;2023-08-06T04:53:20;99162.22;;;17.70;66.33
80938;BME280;70395;51.382;7.074;2023-08-06T04:55:46;99160.56;;;17.69;66.26
80938;BME280;70395;51.382;7.074;2023-08-06T04:58:13;99159.28;;;17.71;65.65
80938;BME280;70395;51.382;7.074;2023-08-06T05:00:39;99163.19;;;17.75;66.05
80938;BME280;70395;51.382;7.074;2023-08-06T05:03:06;99159.81;;;17.80;65.57
80938;BME280;70395;51.382;7.074;2023-08-06T05:05:32;99153.72;;;17.85;65.95
80938;BME280;70395;51.382;7.074;2023-08-06T05:07:58;99150.97;;;17.92;65.74
80938;BME280;70395;51.382;7.074;2023-08-06T05:10:27;99152.38;;;17.94;65.87
80938;BME280;70395;51.382;7.074;2023-08-06T05:12:53;99161.75;;;17.98;65.87
80938;BME280;70395;51.382;7.074;2023-08-06T05:15:19;99165.31;;;17.99;65.62
80938;BME280;70395;51.382;7.074;2023-08-06T05:17:45;99164.22;;;18.00;65.81
80938;BME280;70395;51.382;7.074;2023-08-06T05:20:11;99165.00;;;18.07;66.11
80938;BME280;70395;51.382;7.074;2023-08-06T05:22:37;99168.25;;;18.16;65.51
80938;BME280;70395;51.382;7.074;2023-08-06T05:25:03;99173.66;;;18.23;65.71
80938;BME280;70395;51.382;7.074;2023-08-06T05:27:30;99172.97;;;18.28;64.99
80938;BME280;70395;51.382;7.074;2023-08-06T05:29:56;99181.88;;;18.35;65.47
80938;BME280;70395;51.382;7.074;2023-08-06T05:32:22;99185.56;;;18.41;64.83
80938;BME280;70395;51.382;7.074;2023-08-06T05:34:48;99190.69;;;18.49;64.78
80938;BME280;70395;51.382;7.074;2023-08-06T05:37:14;99194.75;;;18.59;64.43
80938;BME280;70395;51.382;7.074;2023-08-06T05:39:39;99185.47;;;18.66;64.56
80938;BME280;70395;51.382;7.074;2023-08-06T05:42:05;99192.25;;;18.76;65.04
80938;BME280;70395;51.382;7.074;2023-08-06T05:44:32;99197.41;;;18.84;64.38
80938;BME280;70395;51.382;7.074;2023-08-06T05:46:58;99191.72;;;18.86;64.66
80938;BME280;70395;51.382;7.074;2023-08-06T05:49:23;99193.75;;;18.90;64.32
80938;BME280;70395;51.382;7.074;2023-08-06T05:51:49;99199.94;;;18.98;64.18
80938;BME280;70395;51.382;7.074;2023-08-06T05:54:15;99190.88;;;19.04;64.14
80938;BME280;70395;51.382;7.074;2023-08-06T05:56:41;99193.50;;;19.11;63.63
80938;BME280;70395;51.382;7.074;2023-08-06T05:59:06;99192.81;;;19.16;63.52
80938;BME280;70395;51.382;7.074;2023-08-06T06:01:32;99194.41;;;19.23;63.18
80938;BME280;70395;51.382;7.074;2023-08-06T06:03:58;99193.25;;;19.31;63.24
80938;BME280;70395;51.382;7.074;2023-08-06T06:06:24;99201.06;;;19.40;63.00
80938;BME280;70395;51.382;7.074;2023-08-06T06:08:49;99205.09;;;19.49;63.03
80938;BME280;70395;51.382;7.074;2023-08-06T06:11:15;99199.09;;;19.59;63.10
80938;BME280;70395;51.382;7.074;2023-08-06T06:13:41;99206.47;;;19.71;62.84
80938;BME280;70395;51.382;7.074;2023-08-06T06:16:07;99203.97;;;19.81;62.55
80938;BME280;70395;51.382;7.074;2023-08-06T06:18:33;99203.41;;;19.91;62.96
80938;BME280;70395;51.382;7.074;2023-08-06T06:20:58;99203.31;;;19.98;62.17
80938;BME280;70395;51.382;7.074;2023-08-06T06:23:24;99202.34;;;20.04;62.74
80938;BME280;70395;51.382;7.074;2023-08-06T06:25:50;99211.94;;;20.07;61.52
80938;BME280;70395;51.382;7.074;2023-08-06T06:28:18;99206.50;;;20.07;61.95
80938;BME280;70395;51.382;7.074;2023-08-06T06:30:44;99210.44;;;20.11;61.65
80938;BME280;70395;51.382;7.074;2023-08-06T06:33:10;99211.38;;;20.17;61.55
80938;BME280;70395;51.382;7.074;2023-08-06T06:35:36;99214.81;;;20.24;61.58
80938;BME280;70395;51.382;7.074;2023-08-06T06:38:02;99208.06;;;20.27;60.98
80938;BME280;70395;51.382;7.074;2023-08-06T06:40:29;99216.22;;;20.27;61.20
80938;BME280;70395;51.382;7.074;2023-08-06T06:42:55;99208.66;;;20.29;60.57
80938;BME280;70395;51.382;7.074;2023-08-06T06:45:20;99218.59;;;20.35;60.95
80938;BME280;70395;51.382;7.074;2023-08-06T06:47:46;99212.78;;;20.43;60.10
80938;BME280;70395;51.382;7.074;2023-08-06T06:50:12;99230.41;;;20.53;59.87
80938;BME280;70395;51.382;7.074;2023-08-06T06:52:38;99222.13;;;20.59;59.51
80938;BME280;70395;51.382;7.074;2023-08-06T06:55:04;99215.72;;;20.66;59.65
80938;BME280;70395;51.382;7.074;2023-08-06T06:57:30;99222.09;;;20.72;59.44
80938;BME280;70395;51.382;7.074;2023-08-06T06:59:56;99219.56;;;20.82;60.00
80938;BME280;70395;51.382;7.074;2023-08-06T07:02:22;99222.88;;;20.96;59.75
80938;BME280;70395;51.382;7.074;2023-08-06T07:04:47;99226.16;;;21.10;60.13
80938;BME280;70395;51.382;7.074;2023-08-06T07:07:13;99227.19;;;21.21;59.38
80938;BME280;70395;51.382;7.074;2023-08-06T07:09:39;99222.75;;;21.32;58.97
80938;BME280;70395;51.382;7.074;2023-08-06T07:12:05;99219.97;;;21.44;58.74
80938;BME280;70395;51.382;7.074;2023-08-06T07:14:31;99220.16;;;21.55;57.58
80938;BME280;70395;51.382;7.074;2023-08-06T07:16:57;99222.16;;;21.59;57.50
80938;BME280;70395;51.382;7.074;2023-08-06T07:19:23;99221.66;;;21.63;58.72
80938;BME280;70395;51.382;7.074;2023-08-06T07:21:49;99224.22;;;21.69;58.02
80938;BME280;70395;51.382;7.074;2023-08-06T07:24:14;99226.53;;;21.78;57.70
80938;BME280;70395;51.382;7.074;2023-08-06T07:26:40;99225.09;;;21.87;57.71
80938;BME280;70395;51.382;7.074;2023-08-06T07:29:06;99225.50;;;21.96;57.69
80938;BME280;70395;51.382;7.074;2023-08-06T07:31:32;99231.88;;;22.02;56.98
80938;BME280;70395;51.382;7.074;2023-08-06T07:33:58;99231.13;;;22.07;56.82
80938;BME280;70395;51.382;7.074;2023-08-06T07:36:23;99227.31;;;22.08;56.76
80938;BME280;70395;51.382;7.074;2023-08-06T07:38:49;99226.50;;;22.07;56.59
80938;BME280;70395;51.382;7.074;2023-08-06T07:41:24;99234.69;;;22.07;57.01
80938;BME280;70395;51.382;7.074;2023-08-06T07:43:50;99234.91;;;22.05;56.21
80938;BME280;70395;51.382;7.074;2023-08-06T07:46:16;99243.59;;;22.02;56.28
80938;BME280;70395;51.382;7.074;2023-08-06T07:48:41;99238.13;;;22.02;56.75
80938;BME280;70395;51.382;7.074;2023-08-06T07:51:07;99241.78;;;22.08;56.99
80938;BME280;70395;51.382;7.074;2023-08-06T07:53:33;99245.75;;;22.17;56.84
80938;BME280;70395;51.382;7.074;2023-08-06T07:55:59;99238.78;;;22.27;56.10
80938;BME280;70395;51.382;7.074;2023-08-06T07:58:27;99246.56;;;22.35;56.20
80938;BME280;70395;51.382;7.074;2023-08-06T08:00:55;99244.47;;;22.43;55.70
80938;BME280;70395;51.382;7.074;2023-08-06T08:03:20;99247.28;;;22.48;55.54
80938;BME280;70395;51.382;7.074;2023-08-06T08:05:46;99250.31;;;22.52;55.83
80938;BME280;70395;51.382;7.074;2023-08-06T08:08:12;99243.53;;;22.54;55.20
80938;BME280;70395;51.382;7.074;2023-08-06T08:10:38;99247.44;;;22.58;55.21
80938;BME280;70395;51.382;7.074;2023-08-06T08:13:05;99253.78;;;22.64;54.95
80938;BME280;70395;51.382;7.074;2023-08-06T08:15:31;99253.88;;;22.69;54.47
80938;BME280;70395;51.382;7.074;2023-08-06T08:17:58;99257.25;;;22.77;54.55
80938;BME280;70395;51.382;7.074;2023-08-06T08:20:24;99249.69;;;22.84;54.16
80938;BME280;70395;51.382;7.074;2023-08-06T08:22:52;99255.50;;;22.88;53.94
80938;BME280;70395;51.382;7.074;2023-08-06T08:25:17;99255.78;;;22.91;53.64
80938;BME280;70395;51.382;7.074;2023-08-06T08:27:43;99259.91;;;22.94;53.85
80938;BME280;70395;51.382;7.074;2023-08-06T08:30:09;99263.78;;;22.98;54.05
80938;BME280;70395;51.382;7.074;2023-08-06T08:32:35;99256.69;;;22.97;53.49
80938;BME280;70395;51.382;7.074;2023-08-06T08:35:01;99256.44;;;22.99;53.59
80938;BME280;70395;51.382;7.074;2023-08-06T08:37:27;99253.53;;;23.05;53.65
80938;BME280;70395;51.382;7.074;2023-08-06T08:39:52;99260.97;;;23.15;53.59
80938;BME280;70395;51.382;7.074;2023-08-06T08:42:18;99259.50;;;23.30;53.22
80938;BME280;70395;51.382;7.074;2023-08-06T08:44:45;99265.09;;;23.40;52.75
80938;BME280;70395;51.382;7.074;2023-08-06T08:47:11;99259.75;;;23.51;52.50
80938;BME280;70395;51.382;7.074;2023-08-06T08:49:40;99268.91;;;23.62;52.32
80938;BME280;70395;51.382;7.074;2023-08-06T08:52:09;99263.28;;;23.74;51.98
80938;BME280;70395;51.382;7.074;2023-08-06T08:54:38;99265.06;;;23.91;52.07
80938;BME280;70395;51.382;7.074;2023-08-06T08:57:05;99270.41;;;24.08;51.36
80938;BME280;70395;51.382;7.074;2023-08-06T08:59:33;99268.97;;;24.38;51.06
80938;BME280;70395;51.382;7.074;2023-08-06T09:02:01;99272.97;;;24.63;49.99
80938;BME280;70395;51.382;7.074;2023-08-06T09:04:30;99266.72;;;24.73;49.67
80938;BME280;70395;51.382;7.074;2023-08-06T09:06:59;99272.53;;;24.82;49.75
80938;BME280;70395;51.382;7.074;2023-08-06T09:09:35;99280.19;;;24.85;50.04
80938;BME280;70395;51.382;7.074;2023-08-06T09:12:14;99278.03;;;24.93;49.26
80938;BME280;70395;51.382;7.074;2023-08-06T09:14:41;99275.41;;;25.08;49.24
80938;BME280;70395;51.382;7.074;2023-08-06T09:17:07;99278.50;;;25.33;48.64
80938;BME280;70395;51.382;7.074;2023-08-06T09:19:33;99276.34;;;25.51;48.32
80938;BME280;70395;51.382;7.074;2023-08-06T09:21:59;99275.25;;;25.57;47.25
80938;BME280;70395;51.382;7.074;2023-08-06T09:24:25;99283.47;;;25.57;46.88
80938;BME280;70395;51.382;7.074;2023-08-06T09:26:54;99287.09;;;25.84;47.76
80938;BME280;70395;51.382;7.074;2023-08-06T09:29:20;99275.03;;;26.16;47.30
80938;BME280;70395;51.382;7.074;2023-08-06T09:31:49;99283.81;;;26.29;46.34
80938;BME280;70395;51.382;7.074;2023-08-06T09:34:19;99280.50;;;26.53;46.65
80938;BME280;70395;51.382;7.074;2023-08-06T09:36:53;99272.22;;;26.74;45.86
80938;BME280;70395;51.382;7.074;2023-08-06T09:39:30;99276.53;;;26.96;45.34
80938;BME280;70395;51.382;7.074;2023-08-06T09:42:01;99279.22;;;27.12;44.20
80938;BME280;70395;51.382;7.074;2023-08-06T09:44:30;99287.19;;;27.18;44.19
80938;BME280;70395;51.382;7.074;2023-08-06T09:47:02;99283.00;;;27.26;43.97
80938;BME280;70395;51.382;7.074;2023-08-06T09:51:58;99291.72;;;27.44;43.58
80938;BME280;70395;51.382;7.074;2023-08-06T09:54:26;99287.03;;;27.44;43.02
80938;BME280;70395;51.382;7.074;2023-08-06T09:56:54;99288.66;;;27.46;42.81
80938;BME280;70395;51.382;7.074;2023-08-06T09:59:20;99291.69;;;27.49;42.33
80938;BME280;70395;51.382;7.074;2023-08-06T10:01:47;99293.66;;;27.38;42.48
80938;BME280;70395;51.382;7.074;2023-08-06T10:04:14;99296.53;;;27.07;43.56
80938;BME280;70395;51.382;7.074;2023-08-06T10:06:43;99296.13;;;26.68;43.61
80938;BME280;70395;51.382;7.074;2023-08-06T10:09:11;99304.13;;;26.28;44.50
80938;BME280;70395;51.382;7.074;2023-08-06T10:11:39;99301.13;;;25.88;44.91
80938;BME280;70395;51.382;7.074;2023-08-06T10:14:16;99311.16;;;25.40;46.20
80938;BME280;70395;51.382;7.074;2023-08-06T10:16:44;99300.59;;;25.05;47.51
80938;BME280;70395;51.382;7.074;2023-08-06T10:19:12;99300.69;;;24.67;48.16
80938;BME280;70395;51.382;7.074;2023-08-06T10:21:39;99298.00;;;24.34;48.89
80938;BME280;70395;51.382;7.074;2023-08-06T10:24:08;99295.00;;;24.03;49.98
80938;BME280;70395;51.382;7.074;2023-08-06T10:26:37;99301.59;;;23.79;50.36
80938;BME280;70395;51.382;7.074;2023-08-06T10:29:36;99295.06;;;23.53;50.91
80938;BME280;70395;51.382;7.074;2023-08-06T10:32:02;99294.16;;;23.47;50.93
80938;BME280;70395;51.382;7.074;2023-08-06T10:34:58;99298.69;;;23.36;51.48
80938;BME280;70395;51.382;7.074;2023-08-06T10:37:37;99297.84;;;23.35;52.43
80938;BME280;70395;51.382;7.074;2023-08-06T10:40:06;99299.31;;;23.43;52.42
80938;BME280;70395;51.382;7.074;2023-08-06T10:42:33;99300.53;;;23.53;52.65
80938;BME280;70395;51.382;7.074;2023-08-06T10:45:16;99300.38;;;23.65;52.76
80938;BME280;70395;51.382;7.074;2023-08-06T10:47:43;99312.59;;;23.84;52.91
80938;BME280;70395;51.382;7.074;2023-08-06T10:50:15;99309.28;;;24.10;51.51
80938;BME280;70395;51.382;7.074;2023-08-06T10:52:45;99309.19;;;25.30;49.46
80938;BME280;70395;51.382;7.074;2023-08-06T10:55:22;99305.09;;;27.05;47.92
80938;BME280;70395;51.382;7.074;2023-08-06T10:57:49;99308.44;;;28.88;43.91
80938;BME280;70395;51.382;7.074;2023-08-06T11:00:14;99302.88;;;29.37;42.52
80938;BME280;70395;51.382;7.074;2023-08-06T11:02:41;99312.41;;;29.01;41.81
80938;BME280;70395;51.382;7.074;2023-08-06T11:05:08;99323.88;;;28.29;42.40
80938;BME280;70395;51.382;7.074;2023-08-06T11:07:35;99309.56;;;27.52;43.44
80938;BME280;70395;51.382;7.074;2023-08-06T11:10:06;99315.34;;;26.79;45.25
80938;BME280;70395;51.382;7.074;2023-08-06T11:12:33;99326.38;;;26.26;47.07
80938;BME280;70395;51.382;7.074;2023-08-06T11:15:00;99327.19;;;25.80;46.90
80938;BME280;70395;51.382;7.074;2023-08-06T11:17:32;99337.19;;;25.37;47.65
80938;BME280;70395;51.382;7.074;2023-08-06T11:20:05;99333.00;;;25.14;48.66
80938;BME280;70395;51.382;7.074;2023-08-06T11:22:31;99334.34;;;25.06;49.01
80938;BME280;70395;51.382;7.074;2023-08-06T11:24:57;99336.75;;;24.97;49.01
80938;BME280;70395;51.382;7.074;2023-08-06T11:27:26;99345.94;;;24.75;48.91
80938;BME280;70395;51.382;7.074;2023-08-06T11:29:53;99355.00;;;24.37;49.28
80938;BME280;70395;51.382;7.074;2023-08-06T11:32:19;99351.84;;;23.95;48.93
80938;BME280;70395;51.382;7.074;2023-08-06T11:34:45;99356.91;;;23.54;49.54
80938;BME280;70395;51.382;7.074;2023-08-06T11:37:11;99356.88;;;23.09;50.16
80938;BME280;70395;51.382;7.074;2023-08-06T11:39:38;99357.00;;;22.62;50.87
80938;BME280;70395;51.382;7.074;2023-08-06T11:42:06;99355.78;;;22.18;51.60
80938;BME280;70395;51.382;7.074;2023-08-06T11:44:35;99348.81;;;21.81;52.63
80938;BME280;70395;51.382;7.074;2023-08-06T11:47:03;99367.31;;;21.49;53.23
80938;BME280;70395;51.382;7.074;2023-08-06T11:49:49;99372.13;;;21.18;54.32
80938;BME280;70395;51.382;7.074;2023-08-06T11:52:23;99375.66;;;20.95;54.89
80938;BME280;70395;51.382;7.074;2023-08-06T11:55:07;99380.16;;;20.65;55.27
80938;BME280;70395;51.382;7.074;2023-08-06T11:57:36;99390.19;;;20.40;55.85
80938;BME280;70395;51.382;7.074;2023-08-06T12:00:14;99395.25;;;20.12;56.36
80938;BME280;70395;51.382;7.074;2023-08-06T12:02:42;99397.50;;;19.97;56.97
80938;BME280;70395;51.382;7.074;2023-08-06T12:05:13;99394.84;;;19.78;57.13
80938;BME280;70395;51.382;7.074;2023-08-06T12:07:45;99399.25;;;19.60;57.59
80938;BME280;70395;51.382;7.074;2023-08-06T12:10:13;99405.91;;;19.45;58.27
80938;BME280;70395;51.382;7.074;2023-08-06T12:12:39;99407.09;;;19.31;58.37
80938;BME280;70395;51.382;7.074;2023-08-06T12:15:07;99405.75;;;19.21;59.52
80938;BME280;70395;51.382;7.074;2023-08-06T12:17:34;99408.28;;;19.16;59.26
80938;BME280;70395;51.382;7.074;2023-08-06T12:20:00;99421.09;;;19.09;60.18
80938;BME280;70395;51.382;7.074;2023-08-06T12:22:26;99416.19;;;18.99;60.67
80938;BME280;70395;51.382;7.074;2023-08-06T12:24:52;99407.44;;;18.97;60.74
80938;BME280;70395;51.382;7.074;2023-08-06T12:27:18;99415.66;;;18.90;61.01
80938;BME280;70395;51.382;7.074;2023-08-06T12:29:48;99420.91;;;18.85;61.32
80938;BME280;70395;51.382;7.074;2023-08-06T12:32:14;99418.41;;;18.83;61.20
80938;BME280;70395;51.382;7.074;2023-08-06T12:34:42;99429.50;;;18.82;60.79
80938;BME280;70395;51.382;7.074;2023-08-06T12:37:09;99433.47;;;18.79;60.82
80938;BME280;70395;51.382;7.074;2023-08-06T12:39:35;99439.34;;;18.76;61.36
80938;BME280;70395;51.382;7.074;2023-08-06T12:42:04;99441.47;;;18.74;61.70
80938;BME280;70395;51.382;7.074;2023-08-06T12:44:30;99449.16;;;18.77;61.36
80938;BME280;70395;51.382;7.074;2023-08-06T12:46:56;99453.34;;;18.79;61.19
80938;BME280;70395;51.382;7.074;2023-08-06T12:49:24;99459.81;;;18.78;61.38
80938;BME280;70395;51.382;7.074;2023-08-06T12:51:53;99466.50;;;18.76;61.79
80938;BME280;70395;51.382;7.074;2023-08-06T12:54:20;99456.31;;;18.71;61.58
80938;BME280;70395;51.382;7.074;2023-08-06T12:56:47;99460.75;;;18.65;61.85
80938;BME280;70395;51.382;7.074;2023-08-06T12:59:16;99471.22;;;18.62;62.29
80938;BME280;70395;51.382;7.074;2023-08-06T13:01:43;99479.13;;;18.63;62.26
80938;BME280;70395;51.382;7.074;2023-08-06T13:04:09;99484.19;;;18.60;62.67
80938;BME280;70395;51.382;7.074;2023-08-06T13:06:37;99483.78;;;18.56;62.85
80938;BME280;70395;51.382;7.074;2023-08-06T13:09:07;99484.00;;;18.54;62.46